Página principal
METAR-TAF:

METAR-TAF

Aeroportos :

Aeroporto de Yakutsk

Yakutsk, Rússia

latitude: 62-01N, longitude: 129-43E, altura: 103 m

Observação actual do tempo

O boletim foi feito há 26 minutos, às 14:00 UTC
Vento 6 kt de noroeste
Temperatura 12°C
Humidade 54%
Pressão 1011 hPa
Visibilidade: 3200 m
fumo

METAR: UEEE 181400Z 31003MPS 3200 FU NSC 12/03 Q1011 R23L/09//60 NOSIG RMK QFE749

Hora: 23:26 (14:26 UTC)

Previsão

O boletim foi feito há 3 horas e 26 minutos, às 11:00 UTC
Previsão válida de 18 às 12 UTC a 19 às 18 UTC
Vento 10 kt de noroeste com rajadas de 19 kt
Visibilidade: 2100 m
fumo
Temporariamente
de 18 às 18 UTC a 19 às 06 UTC
Vento 2 kt com direcção variável
Visibilidade: 0500 m
a uma altura de 300 ft
bruma

TAF: UEEE 181100Z 1812/1918 32005G10MPS 2100 FU NSC TEMPO 1818/1906 VRB01MPS 0500 HZ VV003

Observações e previsões do tempo de mais de 4000 aeroportos (mensagens METAR e TAF).

As estações disponíveis são os pontos amarelos e vermelhos sobre o mapa.

Mova o rato sobre o mapa para ver o nome da estação.

Depois clique no ponto para visualizar as observações e previsões meteorológicas.

Para alterar o mapa : clique nos botões verdes com uma cruz preta para aumentar o zoom; no botão verde com uma pitada de zoom; ou nas setas verdes para mapas adjacentes.


METAR-TAF: